createdAt,value
2022-11-17T00:01:25.640Z,1.79
2022-11-17T00:03:52.858Z,1.78
2022-11-17T00:06:23.010Z,1.74
2022-11-17T00:08:52.927Z,1.73
2022-11-17T00:11:19.679Z,1.70
2022-11-17T00:14:05.416Z,1.70
2022-11-17T00:16:32.184Z,1.65
2022-11-17T00:19:17.479Z,1.64
2022-11-17T00:21:44.217Z,1.62
2022-11-17T00:24:11.224Z,1.60
2022-11-17T00:27:00.542Z,1.58
2022-11-17T00:29:28.999Z,1.56
2022-11-17T00:32:14.610Z,1.57
2022-11-17T00:34:41.746Z,1.54
2022-11-17T00:37:09.381Z,1.52
2022-11-17T00:39:36.344Z,1.51
2022-11-17T00:42:03.129Z,1.47
2022-11-17T00:44:30.694Z,1.45
2022-11-17T00:46:57.907Z,1.45
2022-11-17T00:49:27.755Z,1.44
2022-11-17T00:51:55.714Z,1.43
2022-11-17T00:54:23.318Z,1.40
2022-11-17T00:56:50.122Z,1.41
2022-11-17T00:59:17.193Z,1.42
2022-11-17T01:01:44.284Z,1.42
2022-11-17T01:04:13.641Z,1.45
2022-11-17T01:06:42.933Z,1.44
2022-11-17T01:09:16.106Z,1.43
2022-11-17T01:11:43.611Z,1.45
2022-11-17T01:14:20.458Z,1.44
2022-11-17T01:16:47.615Z,1.48
2022-11-17T01:19:15.590Z,1.48
2022-11-17T01:21:42.752Z,1.47
2022-11-17T01:24:11.613Z,1.44
2022-11-17T01:26:39.875Z,1.43
2022-11-17T01:29:08.428Z,1.44
2022-11-17T01:31:38.895Z,1.44
2022-11-17T01:34:06.946Z,1.43
2022-11-17T01:36:55.236Z,1.42
2022-11-17T01:39:26.641Z,1.41
2022-11-17T01:41:54.261Z,1.42
2022-11-17T01:44:44.616Z,1.41
2022-11-17T01:47:20.804Z,1.43
2022-11-17T01:49:51.725Z,1.43
2022-11-17T01:52:18.602Z,1.42
2022-11-17T01:54:48.129Z,1.41
2022-11-17T01:57:22.270Z,1.39
2022-11-17T02:00:01.936Z,1.36
2022-11-17T02:02:28.965Z,1.38
2022-11-17T02:05:06.282Z,1.35
2022-11-17T02:07:39.167Z,1.36
2022-11-17T02:10:07.142Z,1.40
2022-11-17T02:12:36.194Z,1.36
2022-11-17T02:15:04.512Z,1.37
2022-11-17T02:17:44.321Z,1.36
2022-11-17T02:20:34.009Z,1.33
2022-11-17T02:23:29.838Z,1.31
2022-11-17T02:26:11.434Z,1.29
2022-11-17T02:28:44.688Z,1.29
2022-11-17T02:31:20.484Z,1.28
2022-11-17T02:34:08.473Z,1.25
2022-11-17T02:36:50.738Z,1.27
2022-11-17T02:39:31.610Z,1.25
2022-11-17T02:42:03.997Z,1.24
2022-11-17T02:44:42.045Z,1.23
2022-11-17T02:47:15.200Z,1.19
2022-11-17T02:49:49.523Z,1.19
2022-11-17T02:52:19.054Z,1.18
2022-11-17T02:54:46.022Z,1.18
2022-11-17T02:57:28.109Z,1.17
2022-11-17T02:59:55.429Z,1.16
2022-11-17T03:02:49.972Z,1.14
2022-11-17T03:05:58.657Z,1.11
2022-11-17T03:08:47.333Z,1.10
2022-11-17T03:11:14.359Z,1.10
2022-11-17T03:14:01.917Z,1.09
2022-11-17T03:16:41.018Z,1.07
2022-11-17T03:19:15.933Z,1.07
2022-11-17T03:21:53.602Z,1.06
2022-11-17T03:24:29.941Z,1.04
2022-11-17T03:27:11.993Z,1.02
2022-11-17T03:29:43.166Z,1.00
2022-11-17T03:32:11.901Z,0.97
2022-11-17T03:34:44.535Z,0.94
2022-11-17T03:37:13.966Z,0.93
2022-11-17T03:39:50.428Z,0.91
2022-11-17T03:42:24.321Z,0.88
2022-11-17T03:44:56.030Z,0.83
2022-11-17T03:47:25.970Z,0.78
2022-11-17T03:50:22.185Z,0.77
2022-11-17T03:52:49.391Z,0.71
2022-11-17T03:55:16.687Z,0.67
2022-11-17T03:57:52.491Z,0.65
2022-11-17T04:00:20.588Z,0.57
2022-11-17T04:02:49.282Z,0.56
2022-11-17T04:05:17.920Z,0.52
2022-11-17T04:07:46.765Z,0.49
2022-11-17T04:10:14.881Z,0.45
2022-11-17T04:13:01.102Z,0.43
2022-11-17T04:15:56.347Z,0.38
2022-11-17T04:18:23.770Z,0.38
2022-11-17T04:20:55.977Z,0.40
2022-11-17T04:23:23.939Z,0.37
2022-11-17T04:26:11.984Z,0.36
2022-11-17T04:28:45.447Z,0.37
2022-11-17T04:31:13.842Z,0.37
2022-11-17T04:33:46.038Z,0.36
2022-11-17T04:36:15.342Z,0.36
2022-11-17T04:38:47.359Z,0.34
2022-11-17T04:41:34.862Z,0.34
2022-11-17T04:44:02.737Z,0.31
2022-11-17T04:46:33.291Z,0.26
2022-11-17T04:49:01.998Z,0.26
2022-11-17T04:51:29.711Z,0.23
2022-11-17T04:53:57.153Z,0.21
2022-11-17T04:56:25.336Z,0.21
2022-11-17T04:58:52.300Z,0.20
2022-11-17T05:01:20.996Z,0.22
2022-11-17T05:03:47.697Z,0.17
2022-11-17T05:06:20.503Z,0.18
2022-11-17T05:08:47.811Z,0.17
2022-11-17T05:11:35.506Z,0.16
2022-11-17T05:14:03.328Z,0.15
2022-11-17T05:16:48.750Z,0.16
2022-11-17T05:19:19.768Z,0.17
2022-11-17T05:21:46.979Z,0.16
2022-11-17T05:24:16.589Z,0.16
2022-11-17T05:26:45.740Z,0.14
2022-11-17T05:29:15.221Z,0.13
2022-11-17T05:31:42.516Z,0.13
2022-11-17T05:34:12.483Z,0.14
2022-11-17T05:36:41.065Z,0.13
2022-11-17T05:39:08.716Z,0.13
2022-11-17T05:41:37.234Z,0.12
2022-11-17T05:44:05.142Z,0.14
2022-11-17T05:46:32.222Z,0.12
2022-11-17T05:48:59.009Z,0.08
2022-11-17T05:51:26.415Z,0.08
2022-11-17T05:53:53.171Z,0.07
2022-11-17T05:56:30.309Z,0.08
2022-11-17T05:59:10.007Z,0.07
2022-11-17T06:01:42.297Z,0.08
2022-11-17T06:04:10.359Z,0.07
2022-11-17T06:06:38.182Z,0.06
2022-11-17T06:09:05.629Z,0.05
2022-11-17T06:11:32.742Z,0.02
2022-11-17T06:13:59.489Z,0.04
2022-11-17T06:16:29.695Z,0.04
2022-11-17T06:19:06.009Z,0.04
2022-11-17T06:22:04.413Z,0.03
2022-11-17T06:24:22.141Z,0.03
2022-11-17T06:26:49.277Z,0.05
2022-11-17T06:29:16.552Z,0.04
2022-11-17T06:31:44.983Z,0.06
2022-11-17T06:34:12.955Z,0.11
2022-11-17T06:36:40.064Z,0.10
2022-11-17T06:39:06.816Z,0.13
2022-11-17T06:41:33.841Z,0.13
2022-11-17T06:44:00.673Z,0.12
2022-11-17T06:46:37.941Z,0.14
2022-11-17T06:49:08.369Z,0.16
2022-11-17T06:51:37.981Z,0.13
2022-11-17T06:54:09.751Z,0.12
2022-11-17T06:56:36.962Z,0.14
2022-11-17T06:59:03.904Z,0.14
2022-11-17T07:01:31.008Z,0.17
2022-11-17T07:03:57.842Z,0.19
2022-11-17T07:06:24.977Z,0.19
2022-11-17T07:08:51.771Z,0.23
2022-11-17T07:11:18.868Z,0.27
2022-11-17T07:13:45.911Z,0.28
2022-11-17T07:16:23.610Z,0.30
2022-11-17T07:18:52.827Z,0.31
2022-11-17T07:21:20.008Z,0.32
2022-11-17T07:23:47.210Z,0.32
2022-11-17T07:26:14.534Z,0.31
2022-11-17T07:28:41.463Z,0.32
2022-11-17T07:31:09.822Z,0.34
2022-11-17T07:33:36.947Z,0.32
2022-11-17T07:36:09.867Z,0.29
2022-11-17T07:38:38.956Z,0.31
2022-11-17T07:41:07.993Z,0.34
2022-11-17T07:43:36.137Z,0.35
2022-11-17T07:46:05.155Z,0.37
2022-11-17T07:48:33.041Z,0.39
2022-11-17T07:51:01.119Z,0.41
2022-11-17T07:53:28.204Z,0.42
2022-11-17T07:55:56.048Z,0.43
2022-11-17T07:58:25.463Z,0.46
2022-11-17T08:00:52.739Z,0.45
2022-11-17T08:03:19.671Z,0.45
2022-11-17T08:05:46.827Z,0.45
2022-11-17T08:08:14.222Z,0.47
2022-11-17T08:10:43.104Z,0.45
2022-11-17T08:13:09.920Z,0.49
2022-11-17T08:15:37.002Z,0.53
2022-11-17T08:18:03.932Z,0.56
2022-11-17T08:20:31.185Z,0.58
2022-11-17T08:22:58.020Z,0.59
2022-11-17T08:25:26.768Z,0.64
2022-11-17T08:27:58.241Z,0.62
2022-11-17T08:30:26.434Z,0.65
2022-11-17T08:32:54.608Z,0.68
2022-11-17T08:35:24.413Z,0.73
2022-11-17T08:37:52.407Z,0.76
2022-11-17T08:40:20.362Z,0.79
2022-11-17T08:42:53.838Z,0.81
2022-11-17T08:45:23.377Z,0.85
2022-11-17T08:47:50.283Z,0.86
2022-11-17T08:50:18.266Z,0.89
2022-11-17T08:52:45.139Z,0.89
2022-11-17T08:55:12.499Z,0.88
2022-11-17T08:57:39.620Z,0.86
2022-11-17T09:00:07.915Z,0.86
2022-11-17T09:02:34.741Z,0.81
2022-11-17T09:05:01.807Z,0.76
2022-11-17T09:07:34.522Z,0.78
2022-11-17T09:10:02.352Z,0.78
2022-11-17T09:12:29.206Z,0.75
2022-11-17T09:14:56.324Z,0.75
2022-11-17T09:17:23.057Z,0.75
2022-11-17T09:19:52.645Z,0.77
2022-11-17T09:22:19.936Z,0.75
2022-11-17T09:24:47.011Z,0.77
2022-11-17T09:27:13.974Z,0.78
2022-11-17T09:29:41.091Z,0.74
2022-11-17T09:32:07.824Z,0.73
2022-11-17T09:34:34.968Z,0.71
2022-11-17T09:37:01.783Z,0.70
2022-11-17T09:39:29.077Z,0.69
2022-11-17T09:41:57.632Z,0.72
2022-11-17T09:44:34.489Z,0.73
2022-11-17T09:47:26.231Z,0.72
2022-11-17T09:49:58.322Z,0.72
2022-11-17T09:52:31.133Z,0.73
2022-11-17T09:54:59.986Z,0.75
2022-11-17T09:57:42.120Z,0.68
2022-11-17T10:00:18.656Z,0.64
2022-11-17T10:02:46.575Z,0.66
2022-11-17T10:05:28.275Z,0.65
2022-11-17T10:07:58.009Z,0.68
2022-11-17T10:10:33.995Z,0.66
2022-11-17T10:13:05.044Z,0.69
2022-11-17T10:15:45.984Z,0.67
2022-11-17T10:18:15.671Z,0.69
2022-11-17T10:20:44.879Z,0.70
2022-11-17T10:23:18.377Z,0.70
2022-11-17T10:25:47.950Z,0.72
2022-11-17T10:28:30.961Z,0.71
2022-11-17T10:31:04.265Z,0.68
2022-11-17T10:33:39.738Z,0.65
2022-11-17T10:36:15.322Z,0.64
2022-11-17T10:38:54.924Z,0.65
2022-11-17T10:41:42.213Z,0.65
2022-11-17T10:44:24.195Z,0.67
2022-11-17T10:47:02.696Z,0.69
2022-11-17T10:49:34.015Z,0.69
2022-11-17T10:52:16.190Z,0.69
2022-11-17T10:54:43.829Z,0.70
2022-11-17T10:57:20.192Z,0.67
2022-11-17T10:59:56.846Z,0.66
2022-11-17T11:02:33.445Z,0.65
2022-11-17T11:05:10.350Z,0.65
2022-11-17T11:07:38.326Z,0.69
2022-11-17T11:10:43.669Z,0.70
2022-11-17T11:13:52.222Z,0.76
2022-11-17T11:16:19.076Z,0.80
2022-11-17T11:18:48.125Z,0.86
2022-11-17T11:21:32.001Z,0.86
2022-11-17T11:24:17.867Z,0.92
2022-11-17T11:26:51.067Z,0.95
2022-11-17T11:29:45.476Z,0.96
2022-11-17T11:32:18.014Z,0.97
2022-11-17T11:35:07.163Z,0.91
2022-11-17T11:37:43.875Z,0.89
2022-11-17T11:40:11.187Z,0.82
2022-11-17T11:42:59.041Z,0.79
2022-11-17T11:45:44.507Z,0.73
2022-11-17T11:48:16.581Z,0.74
2022-11-17T11:50:52.429Z,0.72
2022-11-17T11:53:32.439Z,0.69
2022-11-17T11:56:12.195Z,0.65
2022-11-17T11:58:47.118Z,0.67
2022-11-17T12:01:17.212Z,0.70
2022-11-17T12:03:54.718Z,0.71
2022-11-17T12:06:42.066Z,0.71
2022-11-17T12:09:14.929Z,0.75
2022-11-17T12:12:01.521Z,0.78
2022-11-17T12:14:28.239Z,0.77
2022-11-17T12:17:17.351Z,0.75
2022-11-17T12:20:07.597Z,0.71
2022-11-17T12:22:37.661Z,0.69
2022-11-17T12:25:29.151Z,0.69
2022-11-17T12:27:56.708Z,0.72
2022-11-17T12:30:37.686Z,0.66
2022-11-17T12:33:06.838Z,0.67
2022-11-17T12:35:39.114Z,0.63
2022-11-17T12:38:18.869Z,0.62
2022-11-17T12:40:54.056Z,0.65
2022-11-17T12:43:21.130Z,0.66
2022-11-17T12:46:12.428Z,0.62
2022-11-17T12:48:45.273Z,0.64
2022-11-17T12:51:34.428Z,0.60
2022-11-17T12:54:27.155Z,0.61
2022-11-17T12:57:02.703Z,0.60
2022-11-17T13:00:07.447Z,0.58
2022-11-17T13:02:58.943Z,0.58
2022-11-17T13:05:30.289Z,0.56
2022-11-17T13:08:24.031Z,0.55
2022-11-17T13:10:51.305Z,0.54
2022-11-17T13:13:21.188Z,0.54
2022-11-17T13:15:58.728Z,0.51
2022-11-17T13:18:38.138Z,0.51
2022-11-17T13:21:16.919Z,0.51
2022-11-17T13:23:45.210Z,0.51
2022-11-17T13:26:31.510Z,0.50
2022-11-17T13:29:11.334Z,0.49
2022-11-17T13:31:38.890Z,0.47
2022-11-17T13:34:13.877Z,0.49
2022-11-17T13:36:57.708Z,0.46
2022-11-17T13:39:27.680Z,0.45
2022-11-17T13:41:57.881Z,0.43
2022-11-17T13:44:27.508Z,0.40
2022-11-17T13:46:55.374Z,0.40
2022-11-17T13:49:38.568Z,0.36
2022-11-17T13:52:13.283Z,0.36
2022-11-17T13:54:45.011Z,0.36
2022-11-17T13:57:26.946Z,0.35
2022-11-17T13:59:54.991Z,0.34
2022-11-17T14:02:24.783Z,0.33
2022-11-17T14:05:09.474Z,0.31
2022-11-17T14:07:39.075Z,0.31
2022-11-17T14:10:20.790Z,0.28
2022-11-17T14:13:00.649Z,0.28
2022-11-17T14:15:30.228Z,0.31
2022-11-17T14:17:59.856Z,0.32
2022-11-17T14:20:34.942Z,0.29
2022-11-17T14:23:08.675Z,0.26
2022-11-17T14:25:40.323Z,0.27
2022-11-17T14:28:19.752Z,0.25
2022-11-17T14:30:51.810Z,0.24
2022-11-17T14:33:19.390Z,0.23
2022-11-17T14:35:50.535Z,0.24
2022-11-17T14:38:19.335Z,0.22
2022-11-17T14:40:46.666Z,0.19
2022-11-17T14:43:13.751Z,0.16
2022-11-17T14:45:40.515Z,0.17
2022-11-17T14:48:07.597Z,0.16
2022-11-17T14:50:34.569Z,0.17
2022-11-17T14:53:01.672Z,0.18
2022-11-17T14:55:28.476Z,0.18
2022-11-17T14:57:55.645Z,0.17
2022-11-17T15:00:22.572Z,0.17
2022-11-17T15:02:49.790Z,0.16
2022-11-17T15:05:17.301Z,0.17
2022-11-17T15:07:44.594Z,0.18
2022-11-17T15:10:12.091Z,0.20
2022-11-17T15:12:39.245Z,0.18
2022-11-17T15:15:06.661Z,0.19
2022-11-17T15:17:33.724Z,0.17
2022-11-17T15:20:00.540Z,0.16
2022-11-17T15:22:27.668Z,0.16
2022-11-17T15:24:54.486Z,0.12
2022-11-17T15:27:21.579Z,0.11
2022-11-17T15:29:48.392Z,0.10
2022-11-17T15:32:15.447Z,0.08
2022-11-17T15:34:42.233Z,0.08
2022-11-17T15:37:09.966Z,0.08
2022-11-17T15:39:36.776Z,0.06
2022-11-17T15:42:03.922Z,0.04
2022-11-17T15:44:30.705Z,0.03
2022-11-17T15:46:57.855Z,0.01
2022-11-17T15:49:24.564Z,0.03
2022-11-17T15:51:51.650Z,0.04
2022-11-17T15:54:20.655Z,0.00
2022-11-17T15:56:48.644Z,-0.01
2022-11-17T15:59:15.846Z,-0.02
2022-11-17T16:01:43.995Z,-0.02
2022-11-17T16:04:13.182Z,-0.06
2022-11-17T16:06:42.145Z,-0.07
2022-11-17T16:09:10.132Z,-0.11
2022-11-17T16:11:37.641Z,-0.15
2022-11-17T16:14:05.332Z,-0.17
2022-11-17T16:16:35.793Z,-0.17
2022-11-17T16:19:02.836Z,-0.21
2022-11-17T16:21:29.918Z,-0.20
2022-11-17T16:23:57.903Z,-0.21
2022-11-17T16:26:26.846Z,-0.21
2022-11-17T16:29:02.260Z,-0.21
2022-11-17T16:31:32.290Z,-0.19
2022-11-17T16:34:10.643Z,-0.20
2022-11-17T16:36:39.690Z,-0.19
2022-11-17T16:39:11.940Z,-0.19
2022-11-17T16:41:40.807Z,-0.16
2022-11-17T16:44:16.286Z,-0.16
2022-11-17T16:46:46.049Z,-0.18
2022-11-17T16:49:15.231Z,-0.19
2022-11-17T16:51:50.598Z,-0.23
2022-11-17T16:54:18.200Z,-0.25
2022-11-17T16:56:45.542Z,-0.26
2022-11-17T16:59:12.602Z,-0.26
2022-11-17T17:01:39.743Z,-0.29
2022-11-17T17:04:08.531Z,-0.30
2022-11-17T17:06:37.450Z,-0.32
2022-11-17T17:09:06.622Z,-0.33
2022-11-17T17:11:35.754Z,-0.38
2022-11-17T17:14:06.191Z,-0.36
2022-11-17T17:16:35.757Z,-0.39
2022-11-17T17:19:05.266Z,-0.40
2022-11-17T17:21:33.428Z,-0.39
2022-11-17T17:24:00.473Z,-0.38
2022-11-17T17:26:29.941Z,-0.37
2022-11-17T17:28:57.971Z,-0.38
2022-11-17T17:31:29.311Z,-0.34
2022-11-17T17:33:56.141Z,-0.34
2022-11-17T17:36:24.910Z,-0.37
2022-11-17T17:38:56.071Z,-0.38
2022-11-17T17:41:26.635Z,-0.38
2022-11-17T17:44:04.374Z,-0.37
2022-11-17T17:46:34.869Z,-0.39
2022-11-17T17:49:01.747Z,-0.40
2022-11-17T17:51:29.740Z,-0.43
2022-11-17T17:54:00.901Z,-0.42
2022-11-17T17:56:30.488Z,-0.41
2022-11-17T17:58:58.962Z,-0.42
2022-11-17T18:01:28.405Z,-0.42
2022-11-17T18:04:01.138Z,-0.47
2022-11-17T18:06:28.333Z,-0.48
2022-11-17T18:08:55.114Z,-0.50
2022-11-17T18:11:22.423Z,-0.53
2022-11-17T18:13:51.333Z,-0.51
2022-11-17T18:16:22.346Z,-0.53
2022-11-17T18:18:49.931Z,-0.53
2022-11-17T18:21:19.340Z,-0.53
2022-11-17T18:23:46.065Z,-0.58
2022-11-17T18:26:18.067Z,-0.57
2022-11-17T18:28:58.078Z,-0.58
2022-11-17T18:31:27.998Z,-0.57
2022-11-17T18:33:56.635Z,-0.56
2022-11-17T18:36:23.982Z,-0.58
2022-11-17T18:38:52.114Z,-0.55
2022-11-17T18:41:20.804Z,-0.57
2022-11-17T18:43:48.288Z,-0.58
2022-11-17T18:46:20.170Z,-0.57
2022-11-17T18:48:49.477Z,-0.56
2022-11-17T18:51:20.437Z,-0.53
2022-11-17T18:53:49.024Z,-0.52
2022-11-17T18:56:21.494Z,-0.52
2022-11-17T18:58:48.921Z,-0.52
2022-11-17T19:01:22.021Z,-0.50
2022-11-17T19:03:51.252Z,-0.51
2022-11-17T19:06:19.953Z,-0.50
2022-11-17T19:08:48.345Z,-0.51
2022-11-17T19:11:17.458Z,-0.52
2022-11-17T19:13:45.279Z,-0.53
2022-11-17T19:16:16.546Z,-0.55
2022-11-17T19:18:45.571Z,-0.55
2022-11-17T19:21:15.514Z,-0.57
2022-11-17T19:23:50.782Z,-0.59
2022-11-17T19:26:23.909Z,-0.60
2022-11-17T19:28:54.238Z,-0.59
2022-11-17T19:31:21.453Z,-0.59
2022-11-17T19:33:50.236Z,-0.56
2022-11-17T19:36:17.151Z,-0.59
2022-11-17T19:38:45.614Z,-0.58
2022-11-17T19:41:21.200Z,-0.57
2022-11-17T19:43:48.391Z,-0.54
2022-11-17T19:46:17.435Z,-0.53
2022-11-17T19:48:44.576Z,-0.53
2022-11-17T19:51:32.735Z,-0.53
2022-11-17T19:54:04.591Z,-0.51
2022-11-17T19:56:31.750Z,-0.49
2022-11-17T19:58:58.691Z,-0.48
2022-11-17T20:01:27.957Z,-0.48
2022-11-17T20:03:55.626Z,-0.50
2022-11-17T20:06:27.308Z,-0.50
2022-11-17T20:08:55.999Z,-0.52
2022-11-17T20:11:26.217Z,-0.50
2022-11-17T20:13:54.042Z,-0.52
2022-11-17T20:16:26.214Z,-0.52
2022-11-17T20:18:55.747Z,-0.53
2022-11-17T20:21:23.949Z,-0.54
2022-11-17T20:23:51.272Z,-0.57
2022-11-17T20:26:21.798Z,-0.55
2022-11-17T20:28:49.039Z,-0.55
2022-11-17T20:31:19.513Z,-0.55
2022-11-17T20:33:47.792Z,-0.56
2022-11-17T20:36:17.342Z,-0.53
2022-11-17T20:38:44.478Z,-0.55
2022-11-17T20:41:11.729Z,-0.55
2022-11-17T20:43:38.593Z,-0.57
2022-11-17T20:46:05.879Z,-0.58
2022-11-17T20:48:35.499Z,-0.58
2022-11-17T20:51:05.770Z,-0.60
2022-11-17T20:53:33.763Z,-0.58
2022-11-17T20:56:02.517Z,-0.56
2022-11-17T20:58:30.455Z,-0.61
2022-11-17T21:00:57.915Z,-0.62
2022-11-17T21:03:26.822Z,-0.61
2022-11-17T21:05:59.085Z,-0.65
2022-11-17T21:08:29.190Z,-0.64
2022-11-17T21:11:04.678Z,-0.64
2022-11-17T21:13:33.586Z,-0.63
2022-11-17T21:16:09.617Z,-0.65
2022-11-17T21:18:38.227Z,-0.65
2022-11-17T21:21:09.192Z,-0.64
2022-11-17T21:23:37.769Z,-0.66
2022-11-17T21:26:06.944Z,-0.66
2022-11-17T21:28:34.723Z,-0.64
2022-11-17T21:31:07.613Z,-0.63
2022-11-17T21:33:35.697Z,-0.66
2022-11-17T21:36:05.356Z,-0.68
2022-11-17T21:38:32.528Z,-0.67
2022-11-17T21:41:07.071Z,-0.69
2022-11-17T21:43:36.636Z,-0.69
2022-11-17T21:46:06.853Z,-0.66
2022-11-17T21:48:35.032Z,-0.67
2022-11-17T21:51:03.012Z,-0.67
2022-11-17T21:53:30.118Z,-0.66
2022-11-17T21:56:01.702Z,-0.67
2022-11-17T21:58:28.709Z,-0.66
2022-11-17T22:00:56.141Z,-0.67
2022-11-17T22:03:23.970Z,-0.68
2022-11-17T22:05:52.399Z,-0.70
2022-11-17T22:08:19.726Z,-0.67
2022-11-17T22:10:46.794Z,-0.68
2022-11-17T22:13:13.568Z,-0.70
2022-11-17T22:15:40.614Z,-0.71
2022-11-17T22:18:07.533Z,-0.68
2022-11-17T22:20:34.619Z,-0.69
2022-11-17T22:23:01.343Z,-0.67
2022-11-17T22:25:44.744Z,-0.66
2022-11-17T22:28:12.307Z,-0.66
2022-11-17T22:30:39.497Z,-0.65
2022-11-17T22:33:06.310Z,-0.65
2022-11-17T22:35:33.363Z,-0.64
2022-11-17T22:38:00.458Z,-0.60
2022-11-17T22:40:27.694Z,-0.60
2022-11-17T22:42:54.455Z,-0.61
2022-11-17T22:45:21.584Z,-0.59
2022-11-17T22:47:48.394Z,-0.57
2022-11-17T22:50:15.747Z,-0.58
2022-11-17T22:52:42.487Z,-0.54
2022-11-17T22:55:09.540Z,-0.53
2022-11-17T22:57:36.308Z,-0.56
2022-11-17T23:00:05.699Z,-0.56
2022-11-17T23:02:32.367Z,-0.63
2022-11-17T23:04:59.415Z,-0.62
2022-11-17T23:07:26.216Z,-0.64
2022-11-17T23:09:53.284Z,-0.63
2022-11-17T23:12:20.051Z,-0.62
2022-11-17T23:14:47.147Z,-0.59
2022-11-17T23:17:14.503Z,-0.56
2022-11-17T23:19:41.559Z,-0.59
2022-11-17T23:22:08.407Z,-0.60
2022-11-17T23:24:35.476Z,-0.62
2022-11-17T23:27:02.224Z,-0.63
2022-11-17T23:29:29.372Z,-0.63
2022-11-17T23:31:56.207Z,-0.61
2022-11-17T23:34:23.342Z,-0.63
2022-11-17T23:36:50.107Z,-0.61
2022-11-17T23:39:17.260Z,-0.64
2022-11-17T23:41:44.224Z,-0.64
2022-11-17T23:44:11.254Z,-0.64
2022-11-17T23:46:38.095Z,-0.65
2022-11-17T23:49:05.207Z,-0.63
2022-11-17T23:51:32.044Z,-0.63
2022-11-17T23:54:00.675Z,-0.60
2022-11-17T23:56:27.663Z,-0.62
2022-11-17T23:58:54.800Z,-0.63
